Terminal Aerodrome Forecast
Issued by NWS

Home | Current Version | Previous Version | Text Only | Print | Product List | Glossary On
Versions: 1 2 3 4 5 6 7 8 9 10 11 12 13 14 15 16 17 18 19 20 21 22
947
FTUS43 KLSX 211526 AAB
TAFSUS
TAF AMD
KSUS 211526Z 2115/2212 09008KT 5SM -SHRA BR BKN010 BKN100
     FM211600 09005KT 5SM -SHRA BR BKN010
     FM211800 09005KT 5SM -SHRA BR BKN015
     FM212100 01004KT P6SM BKN035
     FM220800 00000KT 3SM BR FEW200=

USA.gov is the U.S. government's official web portal to all federal, state and local government web resources and services.